sensor_id;sensor_type;location;lat;lon;timestamp;pressure;altitude;pressure_sealevel;temperature;humidity
55604;BME280;41468;48.838;9.330;2023-05-09T00:01:13;98597.91;;;14.52;100.00
55604;BME280;41468;48.838;9.330;2023-05-09T00:03:40;98598.69;;;14.53;100.00
55604;BME280;41468;48.838;9.330;2023-05-09T00:06:09;98597.06;;;14.45;100.00
55604;BME280;41468;48.838;9.330;2023-05-09T00:08:37;98594.81;;;14.57;100.00
55604;BME280;41468;48.838;9.330;2023-05-09T00:11:04;98596.41;;;14.66;100.00
55604;BME280;41468;48.838;9.330;2023-05-09T00:13:30;98584.59;;;14.58;100.00
55604;BME280;41468;48.838;9.330;2023-05-09T00:15:57;98586.50;;;14.50;100.00
55604;BME280;41468;48.838;9.330;2023-05-09T00:18:24;98580.22;;;14.43;100.00
55604;BME280;41468;48.838;9.330;2023-05-09T00:20:51;98580.63;;;14.52;100.00
55604;BME280;41468;48.838;9.330;2023-05-09T00:23:17;98577.09;;;14.51;100.00
55604;BME280;41468;48.838;9.330;2023-05-09T00:25:44;98581.44;;;14.52;100.00
55604;BME280;41468;48.838;9.330;2023-05-09T00:28:11;98575.09;;;14.41;100.00
55604;BME280;41468;48.838;9.330;2023-05-09T00:30:37;98575.50;;;14.43;100.00
55604;BME280;41468;48.838;9.330;2023-05-09T00:33:04;98571.91;;;14.32;100.00
55604;BME280;41468;48.838;9.330;2023-05-09T00:35:31;98563.31;;;14.44;100.00
55604;BME280;41468;48.838;9.330;2023-05-09T00:37:58;98563.28;;;14.37;100.00
55604;BME280;41468;48.838;9.330;2023-05-09T00:40:25;98571.16;;;14.35;100.00
55604;BME280;41468;48.838;9.330;2023-05-09T00:42:51;98555.44;;;14.35;100.00
55604;BME280;41468;48.838;9.330;2023-05-09T00:45:18;98565.97;;;14.23;100.00
55604;BME280;41468;48.838;9.330;2023-05-09T00:47:45;98565.63;;;14.28;100.00
55604;BME280;41468;48.838;9.330;2023-05-09T00:50:12;98560.09;;;14.21;100.00
55604;BME280;41468;48.838;9.330;2023-05-09T00:52:39;98562.00;;;14.13;100.00
55604;BME280;41468;48.838;9.330;2023-05-09T00:55:07;98557.69;;;14.12;100.00
55604;BME280;41468;48.838;9.330;2023-05-09T00:57:35;98553.81;;;14.20;100.00
55604;BME280;41468;48.838;9.330;2023-05-09T01:00:02;98554.94;;;14.15;100.00
55604;BME280;41468;48.838;9.330;2023-05-09T01:02:30;98549.47;;;14.15;100.00
55604;BME280;41468;48.838;9.330;2023-05-09T01:04:57;98549.47;;;14.12;100.00
55604;BME280;41468;48.838;9.330;2023-05-09T01:07:32;98546.66;;;14.01;100.00
55604;BME280;41468;48.838;9.330;2023-05-09T01:12:57;98543.50;;;13.96;100.00
55604;BME280;41468;48.838;9.330;2023-05-09T01:15:31;98535.69;;;14.01;100.00
55604;BME280;41468;48.838;9.330;2023-05-09T01:18:05;98532.50;;;13.96;100.00
55604;BME280;41468;48.838;9.330;2023-05-09T01:20:42;98539.97;;;13.95;100.00
55604;BME280;41468;48.838;9.330;2023-05-09T01:23:35;98535.16;;;13.74;100.00
55604;BME280;41468;48.838;9.330;2023-05-09T01:26:31;98534.72;;;13.68;100.00
55604;BME280;41468;48.838;9.330;2023-05-09T01:29:17;98538.66;;;13.67;100.00
55604;BME280;41468;48.838;9.330;2023-05-09T01:31:47;98545.59;;;13.54;100.00
55604;BME280;41468;48.838;9.330;2023-05-09T01:34:16;98540.84;;;13.51;100.00
55604;BME280;41468;48.838;9.330;2023-05-09T01:36:45;98541.56;;;13.37;100.00
55604;BME280;41468;48.838;9.330;2023-05-09T01:39:16;98536.91;;;13.45;100.00
55604;BME280;41468;48.838;9.330;2023-05-09T01:41:44;98536.19;;;13.55;100.00
55604;BME280;41468;48.838;9.330;2023-05-09T01:44:12;98533.78;;;13.46;100.00
55604;BME280;41468;48.838;9.330;2023-05-09T01:46:42;98534.63;;;13.54;100.00
55604;BME280;41468;48.838;9.330;2023-05-09T01:49:10;98526.00;;;13.52;100.00
55604;BME280;41468;48.838;9.330;2023-05-09T01:51:37;98523.66;;;13.54;100.00
55604;BME280;41468;48.838;9.330;2023-05-09T01:54:08;98529.28;;;13.76;100.00
55604;BME280;41468;48.838;9.330;2023-05-09T01:56:35;98523.69;;;13.61;100.00
55604;BME280;41468;48.838;9.330;2023-05-09T01:59:04;98529.16;;;13.58;100.00
55604;BME280;41468;48.838;9.330;2023-05-09T02:01:32;98520.81;;;13.40;100.00
55604;BME280;41468;48.838;9.330;2023-05-09T02:04:01;98515.25;;;13.29;100.00
55604;BME280;41468;48.838;9.330;2023-05-09T02:06:30;98521.69;;;13.55;100.00
55604;BME280;41468;48.838;9.330;2023-05-09T02:08:58;98517.28;;;13.43;100.00
55604;BME280;41468;48.838;9.330;2023-05-09T02:11:25;98513.34;;;13.40;100.00
55604;BME280;41468;48.838;9.330;2023-05-09T02:13:51;98514.59;;;13.46;100.00
55604;BME280;41468;48.838;9.330;2023-05-09T02:16:18;98508.00;;;13.55;100.00
55604;BME280;41468;48.838;9.330;2023-05-09T02:18:46;98518.19;;;13.54;100.00
55604;BME280;41468;48.838;9.330;2023-05-09T02:21:13;98511.56;;;13.62;100.00
55604;BME280;41468;48.838;9.330;2023-05-09T02:23:40;98510.38;;;13.60;100.00
55604;BME280;41468;48.838;9.330;2023-05-09T02:26:07;98516.22;;;13.58;100.00
55604;BME280;41468;48.838;9.330;2023-05-09T02:28:34;98522.91;;;13.64;100.00
55604;BME280;41468;48.838;9.330;2023-05-09T02:31:04;98521.34;;;13.63;100.00
55604;BME280;41468;48.838;9.330;2023-05-09T02:33:35;98529.16;;;13.54;100.00
55604;BME280;41468;48.838;9.330;2023-05-09T02:36:04;98524.31;;;13.40;100.00
55604;BME280;41468;48.838;9.330;2023-05-09T02:38:31;98527.13;;;13.47;100.00
55604;BME280;41468;48.838;9.330;2023-05-09T02:40:58;98529.88;;;13.51;100.00
55604;BME280;41468;48.838;9.330;2023-05-09T02:43:24;98525.16;;;13.48;100.00
55604;BME280;41468;48.838;9.330;2023-05-09T02:45:51;98525.16;;;13.44;100.00
55604;BME280;41468;48.838;9.330;2023-05-09T02:48:18;98518.97;;;13.55;100.00
55604;BME280;41468;48.838;9.330;2023-05-09T02:50:45;98515.03;;;13.52;100.00
55604;BME280;41468;48.838;9.330;2023-05-09T02:53:12;98511.84;;;13.46;100.00
55604;BME280;41468;48.838;9.330;2023-05-09T02:55:38;98504.47;;;13.61;100.00
55604;BME280;41468;48.838;9.330;2023-05-09T02:58:05;98491.53;;;13.62;100.00
55604;BME280;41468;48.838;9.330;2023-05-09T03:00:40;98495.34;;;13.43;100.00
55604;BME280;41468;48.838;9.330;2023-05-09T03:03:07;98495.34;;;13.39;100.00
55604;BME280;41468;48.838;9.330;2023-05-09T03:05:34;98490.25;;;13.41;100.00
55604;BME280;41468;48.838;9.330;2023-05-09T03:08:01;98486.03;;;13.55;100.00
55604;BME280;41468;48.838;9.330;2023-05-09T03:10:27;98482.13;;;13.59;100.00
55604;BME280;41468;48.838;9.330;2023-05-09T03:12:54;98476.69;;;13.63;100.00
55604;BME280;41468;48.838;9.330;2023-05-09T03:15:21;98486.47;;;13.60;100.00
55604;BME280;41468;48.838;9.330;2023-05-09T03:17:48;98488.72;;;13.44;100.00
55604;BME280;41468;48.838;9.330;2023-05-09T03:20:14;98478.94;;;13.50;100.00
55604;BME280;41468;48.838;9.330;2023-05-09T03:22:52;98480.50;;;13.47;100.00
55604;BME280;41468;48.838;9.330;2023-05-09T03:25:19;98482.91;;;13.56;100.00
55604;BME280;41468;48.838;9.330;2023-05-09T03:27:46;98483.72;;;13.57;100.00
55604;BME280;41468;48.838;9.330;2023-05-09T03:30:13;98482.50;;;13.54;100.00
55604;BME280;41468;48.838;9.330;2023-05-09T03:32:40;98488.72;;;13.44;100.00
55604;BME280;41468;48.838;9.330;2023-05-09T03:35:06;98479.72;;;13.43;100.00
55604;BME280;41468;48.838;9.330;2023-05-09T03:37:33;98471.53;;;13.54;100.00
55604;BME280;41468;48.838;9.330;2023-05-09T03:40:00;98453.78;;;13.37;100.00
55604;BME280;41468;48.838;9.330;2023-05-09T03:42:26;98456.84;;;13.25;100.00
55604;BME280;41468;48.838;9.330;2023-05-09T03:44:53;98459.19;;;13.26;100.00
55604;BME280;41468;48.838;9.330;2023-05-09T03:47:20;98460.41;;;13.29;100.00
55604;BME280;41468;48.838;9.330;2023-05-09T03:49:47;98449.47;;;13.33;100.00
55604;BME280;41468;48.838;9.330;2023-05-09T03:52:14;98452.13;;;13.25;100.00
55604;BME280;41468;48.838;9.330;2023-05-09T03:54:41;98451.38;;;13.29;100.00
55604;BME280;41468;48.838;9.330;2023-05-09T03:57:07;98465.16;;;13.36;100.00
55604;BME280;41468;48.838;9.330;2023-05-09T03:59:34;98463.03;;;13.18;100.00
55604;BME280;41468;48.838;9.330;2023-05-09T04:02:02;98462.28;;;13.21;100.00
55604;BME280;41468;48.838;9.330;2023-05-09T04:04:28;98467.06;;;13.28;100.00
55604;BME280;41468;48.838;9.330;2023-05-09T04:06:55;98459.97;;;13.27;100.00
55604;BME280;41468;48.838;9.330;2023-05-09T04:09:22;98460.03;;;13.31;100.00
55604;BME280;41468;48.838;9.330;2023-05-09T04:11:49;98459.66;;;13.36;100.00
55604;BME280;41468;48.838;9.330;2023-05-09T04:14:15;98466.28;;;13.31;100.00
55604;BME280;41468;48.838;9.330;2023-05-09T04:16:42;98471.78;;;13.35;100.00
55604;BME280;41468;48.838;9.330;2023-05-09T04:19:09;98459.25;;;13.34;100.00
55604;BME280;41468;48.838;9.330;2023-05-09T04:21:36;98468.69;;;13.40;100.00
55604;BME280;41468;48.838;9.330;2023-05-09T04:24:03;98460.09;;;13.45;100.00
55604;BME280;41468;48.838;9.330;2023-05-09T04:26:30;98467.56;;;13.44;100.00
55604;BME280;41468;48.838;9.330;2023-05-09T04:28:56;98468.28;;;13.38;100.00
55604;BME280;41468;48.838;9.330;2023-05-09T04:31:23;98473.78;;;13.38;100.00
55604;BME280;41468;48.838;9.330;2023-05-09T04:33:50;98469.16;;;13.49;100.00
55604;BME280;41468;48.838;9.330;2023-05-09T04:36:17;98478.63;;;13.62;100.00
55604;BME280;41468;48.838;9.330;2023-05-09T04:38:44;98472.72;;;13.57;100.00
55604;BME280;41468;48.838;9.330;2023-05-09T04:41:10;98482.13;;;13.56;100.00
55604;BME280;41468;48.838;9.330;2023-05-09T04:43:37;98484.81;;;13.48;100.00
55604;BME280;41468;48.838;9.330;2023-05-09T04:46:04;98481.69;;;13.54;100.00
55604;BME280;41468;48.838;9.330;2023-05-09T04:48:31;98486.75;;;13.48;100.00
55604;BME280;41468;48.838;9.330;2023-05-09T04:50:57;98480.56;;;13.55;100.00
55604;BME280;41468;48.838;9.330;2023-05-09T04:53:24;98482.13;;;13.59;100.00
55604;BME280;41468;48.838;9.330;2023-05-09T04:55:52;98488.78;;;13.58;100.00
55604;BME280;41468;48.838;9.330;2023-05-09T04:58:19;98485.22;;;13.51;100.00
55604;BME280;41468;48.838;9.330;2023-05-09T05:00:46;98485.28;;;13.58;100.00
55604;BME280;41468;48.838;9.330;2023-05-09T05:03:12;98483.72;;;13.64;100.00
55604;BME280;41468;48.838;9.330;2023-05-09T05:05:39;98486.09;;;13.65;100.00
55604;BME280;41468;48.838;9.330;2023-05-09T05:08:07;98484.19;;;13.77;100.00
55604;BME280;41468;48.838;9.330;2023-05-09T05:10:33;98485.78;;;13.81;100.00
55604;BME280;41468;48.838;9.330;2023-05-09T05:13:00;98479.91;;;13.83;100.00
55604;BME280;41468;48.838;9.330;2023-05-09T05:15:27;98488.91;;;13.76;100.00
55604;BME280;41468;48.838;9.330;2023-05-09T05:17:54;98475.97;;;13.80;100.00
55604;BME280;41468;48.838;9.330;2023-05-09T05:20:21;98472.91;;;13.96;100.00
55604;BME280;41468;48.838;9.330;2023-05-09T05:22:48;98469.78;;;14.01;100.00
55604;BME280;41468;48.838;9.330;2023-05-09T05:25:14;98472.97;;;14.14;100.00
55604;BME280;41468;48.838;9.330;2023-05-09T05:27:43;98470.59;;;14.12;100.00
55604;BME280;41468;48.838;9.330;2023-05-09T05:30:10;98465.91;;;14.06;100.00
55604;BME280;41468;48.838;9.330;2023-05-09T05:32:37;98467.09;;;14.12;100.00
55604;BME280;41468;48.838;9.330;2023-05-09T05:35:04;98466.72;;;14.13;100.00
55604;BME280;41468;48.838;9.330;2023-05-09T05:37:31;98463.19;;;14.17;100.00
55604;BME280;41468;48.838;9.330;2023-05-09T05:39:57;98461.25;;;14.28;100.00
55604;BME280;41468;48.838;9.330;2023-05-09T05:42:24;98457.31;;;14.25;100.00
55604;BME280;41468;48.838;9.330;2023-05-09T05:44:51;98457.31;;;14.22;100.00
55604;BME280;41468;48.838;9.330;2023-05-09T05:47:17;98446.75;;;14.38;100.00
55604;BME280;41468;48.838;9.330;2023-05-09T05:49:44;98451.88;;;14.43;100.00
55604;BME280;41468;48.838;9.330;2023-05-09T05:52:11;98442.44;;;14.48;100.00
55604;BME280;41468;48.838;9.330;2023-05-09T05:54:38;98440.91;;;14.57;100.00
55604;BME280;41468;48.838;9.330;2023-05-09T05:57:04;98436.22;;;14.62;100.00
55604;BME280;41468;48.838;9.330;2023-05-09T05:59:31;98435.41;;;14.61;99.92
55604;BME280;41468;48.838;9.330;2023-05-09T06:01:58;98431.91;;;14.86;98.87
55604;BME280;41468;48.838;9.330;2023-05-09T06:04:24;98432.31;;;14.70;99.01
55604;BME280;41468;48.838;9.330;2023-05-09T06:06:51;98439.00;;;14.72;98.59
55604;BME280;41468;48.838;9.330;2023-05-09T06:09:18;98445.66;;;14.86;97.17
55604;BME280;41468;48.838;9.330;2023-05-09T06:11:49;98437.81;;;14.70;97.87
55604;BME280;41468;48.838;9.330;2023-05-09T06:14:16;98431.53;;;14.84;96.53
55604;BME280;41468;48.838;9.330;2023-05-09T06:16:42;98430.75;;;14.94;96.00
55604;BME280;41468;48.838;9.330;2023-05-09T06:19:09;98433.47;;;15.08;95.98
55604;BME280;41468;48.838;9.330;2023-05-09T06:21:36;98435.44;;;14.93;96.64
55604;BME280;41468;48.838;9.330;2023-05-09T06:24:03;98426.00;;;15.16;95.73
55604;BME280;41468;48.838;9.330;2023-05-09T06:26:39;98422.06;;;15.17;95.82
55604;BME280;41468;48.838;9.330;2023-05-09T06:29:06;98419.31;;;15.24;95.72
55604;BME280;41468;48.838;9.330;2023-05-09T06:31:33;98421.25;;;15.34;94.48
55604;BME280;41468;48.838;9.330;2023-05-09T06:34:04;98424.81;;;15.24;94.84
55604;BME280;41468;48.838;9.330;2023-05-09T06:36:36;98424.38;;;15.36;93.13
55604;BME280;41468;48.838;9.330;2023-05-09T06:39:02;98427.47;;;15.53;93.41
55604;BME280;41468;48.838;9.330;2023-05-09T06:41:29;98424.28;;;15.65;91.58
55604;BME280;41468;48.838;9.330;2023-05-09T06:43:56;98414.47;;;15.71;90.46
55604;BME280;41468;48.838;9.330;2023-05-09T06:46:23;98412.09;;;15.66;90.32
55604;BME280;41468;48.838;9.330;2023-05-09T06:48:50;98417.19;;;15.85;90.47
55604;BME280;41468;48.838;9.330;2023-05-09T06:51:16;98405.75;;;15.90;89.94
55604;BME280;41468;48.838;9.330;2023-05-09T06:53:43;98403.59;;;16.20;89.69
55604;BME280;41468;48.838;9.330;2023-05-09T06:56:10;98396.44;;;16.37;87.63
55604;BME280;41468;48.838;9.330;2023-05-09T06:58:37;98400.19;;;16.61;86.17
55604;BME280;41468;48.838;9.330;2023-05-09T07:01:04;98398.88;;;16.76;85.14
55604;BME280;41468;48.838;9.330;2023-05-09T07:03:31;98394.59;;;16.71;83.51
55604;BME280;41468;48.838;9.330;2023-05-09T07:05:57;98401.78;;;16.58;84.87
55604;BME280;41468;48.838;9.330;2023-05-09T07:08:25;98393.94;;;16.53;85.80
55604;BME280;41468;48.838;9.330;2023-05-09T07:10:52;98399.53;;;16.39;86.25
55604;BME280;41468;48.838;9.330;2023-05-09T07:13:19;98389.75;;;16.30;86.44
55604;BME280;41468;48.838;9.330;2023-05-09T07:15:46;98391.50;;;16.62;85.98
55604;BME280;41468;48.838;9.330;2023-05-09T07:18:12;98385.03;;;16.87;85.45
55604;BME280;41468;48.838;9.330;2023-05-09T07:20:39;98388.19;;;16.85;83.48
55604;BME280;41468;48.838;9.330;2023-05-09T07:23:06;98377.13;;;16.89;83.03
55604;BME280;41468;48.838;9.330;2023-05-09T07:25:33;98381.38;;;16.97;82.32
55604;BME280;41468;48.838;9.330;2023-05-09T07:28:11;98384.56;;;17.33;81.24
55604;BME280;41468;48.838;9.330;2023-05-09T07:30:49;98385.97;;;17.49;80.28
55604;BME280;41468;48.838;9.330;2023-05-09T07:33:16;98365.91;;;17.75;79.18
55604;BME280;41468;48.838;9.330;2023-05-09T07:35:43;98358.22;;;17.59;79.02
55604;BME280;41468;48.838;9.330;2023-05-09T07:38:09;98348.91;;;17.80;78.35
55604;BME280;41468;48.838;9.330;2023-05-09T07:40:36;98340.94;;;17.86;78.73
55604;BME280;41468;48.838;9.330;2023-05-09T07:43:04;98343.25;;;17.60;79.08
55604;BME280;41468;48.838;9.330;2023-05-09T07:45:36;98345.56;;;17.96;77.01
55604;BME280;41468;48.838;9.330;2023-05-09T07:48:03;98341.25;;;17.92;76.09
55604;BME280;41468;48.838;9.330;2023-05-09T07:50:30;98334.25;;;18.14;74.70
55604;BME280;41468;48.838;9.330;2023-05-09T07:52:57;98329.09;;;18.16;75.28
55604;BME280;41468;48.838;9.330;2023-05-09T07:55:25;98325.19;;;18.37;73.47
55604;BME280;41468;48.838;9.330;2023-05-09T07:57:52;98322.34;;;18.17;74.89
55604;BME280;41468;48.838;9.330;2023-05-09T08:00:18;98319.69;;;18.10;75.05
55604;BME280;41468;48.838;9.330;2023-05-09T08:02:52;98314.50;;;18.39;73.03
55604;BME280;41468;48.838;9.330;2023-05-09T08:05:19;98308.06;;;18.69;72.14
55604;BME280;41468;48.838;9.330;2023-05-09T08:07:46;98305.63;;;18.75;72.13
55604;BME280;41468;48.838;9.330;2023-05-09T08:10:13;98303.56;;;18.55;71.57
55604;BME280;41468;48.838;9.330;2023-05-09T08:12:40;98299.47;;;18.64;69.90
55604;BME280;41468;48.838;9.330;2023-05-09T08:15:07;98295.84;;;18.90;68.25
55604;BME280;41468;48.838;9.330;2023-05-09T08:17:33;98288.22;;;19.18;68.25
55604;BME280;41468;48.838;9.330;2023-05-09T08:20:00;98288.13;;;19.41;66.53
55604;BME280;41468;48.838;9.330;2023-05-09T08:22:28;98291.97;;;19.68;66.00
55604;BME280;41468;48.838;9.330;2023-05-09T08:24:54;98280.50;;;20.02;66.35
55604;BME280;41468;48.838;9.330;2023-05-09T08:27:21;98274.25;;;19.98;63.22
55604;BME280;41468;48.838;9.330;2023-05-09T08:29:48;98268.97;;;20.03;63.42
55604;BME280;41468;48.838;9.330;2023-05-09T08:32:14;98271.84;;;20.00;63.39
55604;BME280;41468;48.838;9.330;2023-05-09T08:34:41;98266.66;;;20.35;64.42
55604;BME280;41468;48.838;9.330;2023-05-09T08:37:08;98257.13;;;20.19;60.93
55604;BME280;41468;48.838;9.330;2023-05-09T08:39:36;98244.91;;;20.17;62.35
55604;BME280;41468;48.838;9.330;2023-05-09T08:42:03;98246.88;;;20.49;60.43
55604;BME280;41468;48.838;9.330;2023-05-09T08:44:30;98249.50;;;20.40;59.81
55604;BME280;41468;48.838;9.330;2023-05-09T08:46:59;98235.13;;;20.28;59.72
55604;BME280;41468;48.838;9.330;2023-05-09T08:49:27;98237.34;;;20.17;61.11
55604;BME280;41468;48.838;9.330;2023-05-09T08:51:55;98230.94;;;20.37;60.53
55604;BME280;41468;48.838;9.330;2023-05-09T08:54:22;98222.09;;;20.25;59.42
55604;BME280;41468;48.838;9.330;2023-05-09T08:56:50;98223.84;;;20.36;58.84
55604;BME280;41468;48.838;9.330;2023-05-09T08:59:17;98227.25;;;20.72;58.76
55604;BME280;41468;48.838;9.330;2023-05-09T09:01:44;98229.56;;;21.03;57.30
55604;BME280;41468;48.838;9.330;2023-05-09T09:04:11;98221.28;;;21.16;55.63
55604;BME280;41468;48.838;9.330;2023-05-09T09:06:39;98224.09;;;21.29;57.42
55604;BME280;41468;48.838;9.330;2023-05-09T09:09:07;98226.69;;;21.49;56.11
55604;BME280;41468;48.838;9.330;2023-05-09T09:11:35;98226.47;;;21.56;55.33
55604;BME280;41468;48.838;9.330;2023-05-09T09:14:06;98229.59;;;21.58;54.99
55604;BME280;41468;48.838;9.330;2023-05-09T09:16:37;98223.25;;;21.45;54.31
55604;BME280;41468;48.838;9.330;2023-05-09T09:19:10;98215.25;;;21.85;56.25
55604;BME280;41468;48.838;9.330;2023-05-09T09:21:40;98209.44;;;21.41;51.83
55604;BME280;41468;48.838;9.330;2023-05-09T09:24:07;98205.13;;;21.91;52.56
55604;BME280;41468;48.838;9.330;2023-05-09T09:26:44;98212.78;;;22.00;53.03
55604;BME280;41468;48.838;9.330;2023-05-09T09:29:12;98210.38;;;21.64;53.24
55604;BME280;41468;48.838;9.330;2023-05-09T09:31:43;98201.47;;;21.56;53.75
55604;BME280;41468;48.838;9.330;2023-05-09T09:34:10;98201.44;;;21.94;53.81
55604;BME280;41468;48.838;9.330;2023-05-09T09:36:37;98200.19;;;22.08;52.16
55604;BME280;41468;48.838;9.330;2023-05-09T09:39:04;98193.94;;;22.30;50.40
55604;BME280;41468;48.838;9.330;2023-05-09T09:41:36;98196.81;;;22.39;53.74
55604;BME280;41468;48.838;9.330;2023-05-09T09:46:54;98186.53;;;22.48;51.87
55604;BME280;41468;48.838;9.330;2023-05-09T09:49:24;98179.47;;;22.57;51.48
55604;BME280;41468;48.838;9.330;2023-05-09T09:51:55;98172.00;;;22.66;50.67
55604;BME280;41468;48.838;9.330;2023-05-09T09:54:26;98171.53;;;22.90;50.68
55604;BME280;41468;48.838;9.330;2023-05-09T09:56:53;98179.84;;;23.34;50.56
55604;BME280;41468;48.838;9.330;2023-05-09T09:59:24;98167.47;;;22.60;49.26
55604;BME280;41468;48.838;9.330;2023-05-09T10:02:03;98165.06;;;22.71;48.93
55604;BME280;41468;48.838;9.330;2023-05-09T10:04:35;98151.94;;;22.49;50.43
55604;BME280;41468;48.838;9.330;2023-05-09T10:07:04;98150.13;;;22.56;49.71
55604;BME280;41468;48.838;9.330;2023-05-09T10:09:33;98145.31;;;22.34;50.60
55604;BME280;41468;48.838;9.330;2023-05-09T10:12:03;98143.91;;;22.52;50.52
55604;BME280;41468;48.838;9.330;2023-05-09T10:14:31;98145.38;;;23.09;50.46
55604;BME280;41468;48.838;9.330;2023-05-09T10:17:02;98139.03;;;23.09;50.18
55604;BME280;41468;48.838;9.330;2023-05-09T10:19:30;98130.84;;;23.05;51.50
55604;BME280;41468;48.838;9.330;2023-05-09T10:22:05;98123.13;;;23.50;50.27
55604;BME280;41468;48.838;9.330;2023-05-09T10:24:38;98114.91;;;23.06;49.59
55604;BME280;41468;48.838;9.330;2023-05-09T10:27:10;98115.94;;;22.99;50.75
55604;BME280;41468;48.838;9.330;2023-05-09T10:29:48;98120.22;;;23.22;51.34
55604;BME280;41468;48.838;9.330;2023-05-09T10:32:26;98104.50;;;23.37;49.90
55604;BME280;41468;48.838;9.330;2023-05-09T10:34:59;98100.28;;;22.48;51.29
55604;BME280;41468;48.838;9.330;2023-05-09T10:37:27;98089.78;;;23.28;50.88
55604;BME280;41468;48.838;9.330;2023-05-09T10:39:56;98083.00;;;23.38;50.63
55604;BME280;41468;48.838;9.330;2023-05-09T10:42:23;98077.00;;;23.49;51.18
55604;BME280;41468;48.838;9.330;2023-05-09T10:44:51;98078.66;;;22.97;52.22
55604;BME280;41468;48.838;9.330;2023-05-09T10:47:24;98062.00;;;23.15;51.63
55604;BME280;41468;48.838;9.330;2023-05-09T10:49:53;98060.03;;;23.93;49.28
55604;BME280;41468;48.838;9.330;2023-05-09T10:52:20;98057.25;;;23.93;50.35
55604;BME280;41468;48.838;9.330;2023-05-09T10:54:58;98054.16;;;24.00;50.25
55604;BME280;41468;48.838;9.330;2023-05-09T10:57:28;98060.81;;;23.93;49.57
55604;BME280;41468;48.838;9.330;2023-05-09T10:59:55;98056.94;;;23.23;51.33
55604;BME280;41468;48.838;9.330;2023-05-09T11:02:22;98054.72;;;23.08;51.01
55604;BME280;41468;48.838;9.330;2023-05-09T11:07:42;98041.97;;;23.29;51.12
55604;BME280;41468;48.838;9.330;2023-05-09T11:10:16;98035.31;;;23.45;50.35
55604;BME280;41468;48.838;9.330;2023-05-09T11:12:56;98039.06;;;22.70;51.63
55604;BME280;41468;48.838;9.330;2023-05-09T11:15:24;98024.06;;;22.99;50.69
55604;BME280;41468;48.838;9.330;2023-05-09T11:18:13;98025.69;;;23.28;50.39
55604;BME280;41468;48.838;9.330;2023-05-09T11:20:45;98018.69;;;23.82;50.20
55604;BME280;41468;48.838;9.330;2023-05-09T11:23:21;98009.97;;;23.52;50.23
55604;BME280;41468;48.838;9.330;2023-05-09T11:25:51;98008.44;;;23.70;49.89
55604;BME280;41468;48.838;9.330;2023-05-09T11:28:26;97999.94;;;23.92;49.84
55604;BME280;41468;48.838;9.330;2023-05-09T11:31:17;97998.69;;;23.74;51.59
55604;BME280;41468;48.838;9.330;2023-05-09T11:33:47;97999.19;;;23.73;50.55
55604;BME280;41468;48.838;9.330;2023-05-09T11:36:18;97989.56;;;23.92;50.50
55604;BME280;41468;48.838;9.330;2023-05-09T11:38:46;97988.47;;;23.71;50.67
55604;BME280;41468;48.838;9.330;2023-05-09T11:41:13;97980.38;;;23.36;51.19
55604;BME280;41468;48.838;9.330;2023-05-09T11:43:41;97973.06;;;23.11;52.40
55604;BME280;41468;48.838;9.330;2023-05-09T11:46:21;97973.97;;;22.68;52.51
55604;BME280;41468;48.838;9.330;2023-05-09T11:48:48;97969.69;;;22.76;53.29
55604;BME280;41468;48.838;9.330;2023-05-09T11:51:18;97971.00;;;22.62;53.04
55604;BME280;41468;48.838;9.330;2023-05-09T11:53:48;97961.63;;;22.78;54.17
55604;BME280;41468;48.838;9.330;2023-05-09T11:56:15;97952.41;;;22.90;53.81
55604;BME280;41468;48.838;9.330;2023-05-09T11:58:42;97951.91;;;22.83;54.79
55604;BME280;41468;48.838;9.330;2023-05-09T12:01:12;97956.69;;;22.73;54.59
55604;BME280;41468;48.838;9.330;2023-05-09T12:03:44;97948.78;;;22.40;53.73
55604;BME280;41468;48.838;9.330;2023-05-09T12:06:16;97947.25;;;22.39;54.92
55604;BME280;41468;48.838;9.330;2023-05-09T12:08:44;97941.94;;;22.63;52.98
55604;BME280;41468;48.838;9.330;2023-05-09T12:11:12;97935.28;;;22.61;54.66
55604;BME280;41468;48.838;9.330;2023-05-09T12:13:46;97937.22;;;22.42;54.43
55604;BME280;41468;48.838;9.330;2023-05-09T12:16:15;97933.59;;;22.54;53.67
55604;BME280;41468;48.838;9.330;2023-05-09T12:18:47;97925.41;;;22.60;54.25
55604;BME280;41468;48.838;9.330;2023-05-09T12:21:15;97922.47;;;22.32;54.63
55604;BME280;41468;48.838;9.330;2023-05-09T12:23:43;97914.22;;;22.50;55.07
55604;BME280;41468;48.838;9.330;2023-05-09T12:26:10;97913.69;;;22.34;55.39
55604;BME280;41468;48.838;9.330;2023-05-09T12:28:37;97907.31;;;22.24;56.09
55604;BME280;41468;48.838;9.330;2023-05-09T12:31:05;97910.22;;;22.20;55.40
55604;BME280;41468;48.838;9.330;2023-05-09T12:33:32;97898.91;;;22.15;55.87
55604;BME280;41468;48.838;9.330;2023-05-09T12:36:10;97891.13;;;22.32;56.85
55604;BME280;41468;48.838;9.330;2023-05-09T12:38:37;97898.38;;;22.29;56.78
55604;BME280;41468;48.838;9.330;2023-05-09T12:41:06;97892.44;;;22.18;55.82
55604;BME280;41468;48.838;9.330;2023-05-09T12:43:54;97881.16;;;22.53;56.76
55604;BME280;41468;48.838;9.330;2023-05-09T12:46:25;97875.44;;;23.06;55.33
55604;BME280;41468;48.838;9.330;2023-05-09T12:48:52;97875.91;;;23.32;52.24
55604;BME280;41468;48.838;9.330;2023-05-09T12:51:20;97868.31;;;23.23;52.96
55604;BME280;41468;48.838;9.330;2023-05-09T12:53:47;97870.66;;;23.25;53.30
55604;BME280;41468;48.838;9.330;2023-05-09T12:56:18;97865.22;;;23.03;53.43
55604;BME280;41468;48.838;9.330;2023-05-09T12:58:50;97860.44;;;23.22;52.80
55604;BME280;41468;48.838;9.330;2023-05-09T13:01:18;97853.25;;;22.75;53.82
55604;BME280;41468;48.838;9.330;2023-05-09T13:03:50;97851.75;;;23.10;52.58
55604;BME280;41468;48.838;9.330;2023-05-09T13:06:17;97847.59;;;23.06;53.41
55604;BME280;41468;48.838;9.330;2023-05-09T13:08:56;97852.78;;;22.76;54.88
55604;BME280;41468;48.838;9.330;2023-05-09T13:11:24;97840.94;;;23.12;53.59